Date,TemperatureHighF,TemperatureAvgF,TemperatureLowF,DewpointHighF,DewpointAvgF,DewpointLowF,HumidityHigh,HumidityAvg,HumidityLow,PressureMaxIn,PressureMinIn,WindSpeedMaxMPH,WindSpeedAvgMPH,GustSpeedMaxMPH,PrecipitationSumIn
2012-12-1,61,50,37,52,44,34,93,81,66,30.17,29.99,12,4,19,0.00
2012-12-2,63,57,52,57,52,47,97,85,66,30.07,29.93,9,5,19,0.05
2012-12-3,70,62,54,62,58,53,98,88,71,30.07,29.88,11,6,22,0.01
2012-12-4,63,50,37,58,46,33,96,86,68,30.24,29.91,9,3,19,0.48
2012-12-5,42,37,31,34,31,28,92,80,66,30.43,30.24,7,2,12,0.01
2012-12-6,46,36,30,40,30,-100,89,84,76,30.28,29.97,5,2,11,0.00
2012-12-7,45,44,42,44,42,38,97,93,84,29.98,29.86,6,1,9,0.08
2012-12-8,44,41,36,43,39,34,98,94,88,30.09,29.82,5,2,9,0.07
2012-12-9,48,41,36,47,40,34,98,95,93,30.09,29.74,13,5,19,0.08
2012-12-10,39,30,28,37,29,25,97,93,90,30.01,29.77,16,10,22,0.02
2012-12-11,34,29,22,27,25,20,94,85,69,30.22,30.00,9,4,15,0.00
2012-12-12,43,32,25,31,26,21,87,78,58,30.39,30.22,5,1,11,0.00
2012-12-13,45,36,29,33,28,25,84,73,54,30.37,30.18,9,4,19,0.00
2012-12-14,49,39,31,37,31,26,82,72,59,30.26,30.11,4,1,9,0.00
2012-12-15,52,45,40,50,40,31,95,85,68,30.11,29.66,9,4,19,0.25
2012-12-16,52,46,38,50,44,36,95,93,91,29.75,29.65,9,4,15,0.09
2012-12-17,38,36,33,36,34,32,96,93,91,29.76,29.65,6,2,9,0.10
2012-12-18,44,37,33,40,34,30,97,90,84,29.84,29.63,16,4,25,0.10
2012-12-19,41,38,34,39,35,31,92,90,86,30.09,29.80,15,4,19,0.05
2012-12-20,52,41,31,50,39,30,96,93,81,29.84,29.13,26,9,40,0.95
2012-12-21,31,26,20,30,23,16,96,89,82,30.22,29.46,25,1,35,0.03
2012-12-22,32,22,13,26,18,11,91,86,76,30.30,30.04,0,0,0,0.00
2012-12-23,37,29,20,32,25,18,93,86,78,30.04,29.95,0,0,0,0.00
2012-12-24,32,30,28,30,28,26,94,91,86,30.09,29.84,0,0,0,0.00
2012-12-25,36,31,28,28,26,25,91,82,68,30.30,30.08,0,0,0,0.00
2012-12-26,30,29,28,28,26,23,94,87,80,30.18,29.90,0,0,0,0.00
2012-12-27,30,29,27,28,26,24,94,90,85,30.22,30.07,0,0,0,0.00
2012-12-28,31,30,29,28,27,26,93,89,87,30.19,29.91,0,0,0,0.00
2012-12-29,30,27,21,29,25,18,96,92,86,30.27,29.87,0,0,0,0.00
2012-12-30,30,22,14,25,19,11,91,85,79,30.44,30.27,8,3,15,0.00
2012-12-31,34,30,25,31,27,21,96,87,77,30.27,30.08,0,0,0,0.04